This is the latest recevied weather packets stored in our database for station/object OE-11307. If no packets are shown the sender has not sent any weather packets the latest 10 day(s).
| Time | Temp. | Humidity | Pressure | Rain* | Wind** | Luminosity | Snow |
|---|---|---|---|---|---|---|---|
| 1787729714 | 17.22° C | 79% | 853.7 hPa | 0 mm | - | 265 W/m² | - |
| 1787729114 | 16.67° C | 80% | 853.6 hPa | 0 mm | - | 183 W/m² | - |
| 1787728286 | 16.67° C | 79% | 853.6 hPa | 0 mm | - | 176 W/m² | - |
| 1787727914 | 15.56° C | 80% | 853.3 hPa | 0 mm | - | 164 W/m² | - |
| 1787727314 | 15.56° C | 83% | 853.3 hPa | 0 mm | - | 158 W/m² | - |
| 1787726725 | 15° C | 83% | 853.3 hPa | 0 mm | - | 120 W/m² | - |
| 1787726114 | 15° C | 82% | 853.2 hPa | 0 mm | - | 101 W/m² | - |
| 1787725514 | 14.44° C | 83% | 853.2 hPa | 0 mm | - | 88 W/m² | - |
| 1787724686 | 15° C | 77% | 853.1 hPa | 0 mm | - | 69 W/m² | - |
| 1787724314 | 15° C | 77% | 853.1 hPa | 0 mm | - | 44 W/m² | - |
| 1787723713 | 13.89° C | 82% | 853.1 hPa | 0 mm | - | 38 W/m² | - |
| 1787722886 | 14.44° C | 80% | 853.2 hPa | 0 mm | - | 32 W/m² | - |
| 1787722514 | 13.89° C | 82% | 853.2 hPa | 0 mm | - | 25 W/m² | - |
| 1787721914 | 13.89° C | 81% | 853.1 hPa | 0 mm | - | 19 W/m² | - |
| 1787721086 | 13.33° C | 82% | 853.2 hPa | 0 mm | - | 13 W/m² | - |
| 1787720714 | 13.89° C | 79% | 853.1 hPa | 0 mm | - | 6 W/m² | - |
| 1787720114 | 13.33° C | 83% | 852.9 hPa | 0 mm | - | 6 W/m² | - |
| 1787719287 | 13.33° C | 82% | 852.9 hPa | 0 mm | - | 0 W/m² | - |
| 1787718914 | 13.33° C | 82% | 852.8 hPa | 0 mm | - | 0 W/m² | - |
| 1787718313 | 13.33° C | 79% | 852.7 hPa | 0 mm | - | 0 W/m² | - |
| 1787717486 | 13.89° C | 76% | 852.5 hPa | 0 mm | - | 0 W/m² | - |
| 1787717114 | 13.89° C | 78% | 852.5 hPa | 0 mm | - | 0 W/m² | - |
| 1787716513 | 13.89° C | 76% | 852.5 hPa | 0 mm | - | 0 W/m² | - |
| 1787715914 | 13.33° C | 80% | 852.5 hPa | 0 mm | - | 0 W/m² | - |
| 1787715313 | 13.89° C | 78% | 852.5 hPa | 0 mm | - | 0 W/m² | - |
* Rain latest hour (hover to see other rain measurements)
** Current wind speed in m/s (hover to see current wind gust speed)